createdAt,value
2023-02-18T00:01:58.239Z,91.20
2023-02-18T00:04:26.300Z,91.20
2023-02-18T00:06:54.339Z,91.30
2023-02-18T00:09:22.377Z,91.20
2023-02-18T00:11:51.750Z,91.30
2023-02-18T00:14:19.922Z,91.20
2023-02-18T00:16:47.932Z,91.30
2023-02-18T00:19:17.383Z,91.30
2023-02-18T00:21:45.459Z,91.30
2023-02-18T00:24:15.212Z,91.30
2023-02-18T00:26:43.340Z,91.30
2023-02-18T00:29:12.840Z,91.30
2023-02-18T00:31:41.474Z,91.30
2023-02-18T00:34:09.645Z,91.30
2023-02-18T00:36:37.700Z,91.30
2023-02-18T00:39:07.195Z,91.30
2023-02-18T00:41:35.381Z,91.40
2023-02-18T00:44:03.444Z,91.30
2023-02-18T00:46:32.918Z,91.30
2023-02-18T00:49:00.952Z,91.30
2023-02-18T00:51:28.955Z,91.30
2023-02-18T00:53:56.991Z,91.30
2023-02-18T00:56:25.009Z,91.30
2023-02-18T00:58:53.206Z,91.30
2023-02-18T01:01:21.339Z,91.30
2023-02-18T01:03:50.829Z,91.30
2023-02-18T01:06:18.904Z,91.30
2023-02-18T01:08:46.981Z,91.30
2023-02-18T01:11:15.056Z,91.30
2023-02-18T01:13:43.094Z,91.30
2023-02-18T01:16:11.447Z,91.40
2023-02-18T01:18:39.740Z,91.30
2023-02-18T01:21:09.407Z,91.30
2023-02-18T01:23:37.679Z,91.40
2023-02-18T01:26:07.321Z,91.30
2023-02-18T01:28:35.662Z,91.30
2023-02-18T01:31:06.681Z,91.30
2023-02-18T01:33:34.825Z,91.30
2023-02-18T01:36:02.842Z,91.40
2023-02-18T01:38:32.276Z,91.40
2023-02-18T01:41:00.335Z,91.40
2023-02-18T01:43:28.398Z,91.40
2023-02-18T01:46:02.070Z,91.40
2023-02-18T01:48:32.374Z,91.40
2023-02-18T01:51:03.872Z,91.50
2023-02-18T01:53:37.039Z,91.40
2023-02-18T01:56:06.566Z,91.40
2023-02-18T01:58:34.819Z,91.50
2023-02-18T02:01:02.890Z,91.50
2023-02-18T02:03:30.942Z,91.50
2023-02-18T02:05:58.995Z,91.50
2023-02-18T02:08:26.989Z,91.50
2023-02-18T02:11:04.972Z,91.50
2023-02-18T02:13:52.468Z,91.50
2023-02-18T02:16:23.091Z,91.50
2023-02-18T02:18:57.653Z,91.60
2023-02-18T02:22:12.334Z,91.60
2023-02-18T02:24:55.715Z,91.60
2023-02-18T02:27:26.908Z,91.60
2023-02-18T02:30:43.320Z,91.60
2023-02-18T02:33:46.423Z,91.60
2023-02-18T02:36:16.048Z,91.60
2023-02-18T02:38:49.721Z,91.60
2023-02-18T02:41:23.221Z,91.60
2023-02-18T02:43:54.939Z,91.50
2023-02-18T02:46:24.533Z,91.70
2023-02-18T02:48:55.904Z,91.60
2023-02-18T02:51:26.930Z,91.60
2023-02-18T02:53:54.975Z,91.60
2023-02-18T02:56:24.378Z,91.70
2023-02-18T02:58:56.596Z,91.60
2023-02-18T03:01:32.322Z,91.60
2023-02-18T03:04:31.031Z,91.60
2023-02-18T03:07:24.016Z,91.60
2023-02-18T03:10:01.636Z,91.50
2023-02-18T03:12:32.382Z,91.50
2023-02-18T03:15:02.643Z,91.50
2023-02-18T03:17:37.478Z,91.60
2023-02-18T03:20:09.346Z,91.50
2023-02-18T03:22:40.762Z,91.50
2023-02-18T03:25:09.102Z,91.50
2023-02-18T03:27:39.387Z,91.50
2023-02-18T03:30:11.627Z,91.50
2023-02-18T03:32:39.719Z,91.50
2023-02-18T03:35:09.651Z,91.50
2023-02-18T03:37:40.338Z,91.60
2023-02-18T03:40:09.571Z,91.60
2023-02-18T03:42:37.601Z,91.50
2023-02-18T03:45:06.272Z,91.70
2023-02-18T03:47:36.749Z,91.60
2023-02-18T03:50:04.933Z,91.60
2023-02-18T03:52:36.967Z,91.50
2023-02-18T03:55:07.052Z,91.50
2023-02-18T03:57:35.071Z,91.60
2023-02-18T04:00:03.801Z,91.60
2023-02-18T04:02:31.816Z,91.60
2023-02-18T04:04:59.958Z,91.60
2023-02-18T04:07:28.003Z,91.60
2023-02-18T04:09:56.043Z,91.60
2023-02-18T04:12:25.445Z,91.60
2023-02-18T04:14:53.468Z,91.60
2023-02-18T04:17:21.539Z,91.70
2023-02-18T04:19:49.557Z,91.70
2023-02-18T04:22:17.597Z,91.70
2023-02-18T04:24:45.656Z,91.60
2023-02-18T04:27:18.752Z,91.60
2023-02-18T04:29:50.785Z,91.60
2023-02-18T04:32:18.820Z,91.60
2023-02-18T04:34:46.823Z,91.60
2023-02-18T04:37:14.849Z,91.60
2023-02-18T04:39:43.132Z,91.60
2023-02-18T04:42:11.164Z,91.60
2023-02-18T04:44:39.322Z,91.60
2023-02-18T04:47:08.948Z,91.60
2023-02-18T04:49:37.140Z,91.60
2023-02-18T04:52:05.294Z,91.80
2023-02-18T04:54:33.384Z,91.80
2023-02-18T04:57:01.408Z,91.80
2023-02-18T04:59:29.413Z,91.80
2023-02-18T05:01:57.443Z,91.80
2023-02-18T05:04:26.871Z,91.80
2023-02-18T05:06:54.904Z,91.70
2023-02-18T05:09:22.947Z,91.80
2023-02-18T05:11:51.595Z,91.80
2023-02-18T05:14:19.764Z,91.90
2023-02-18T05:16:47.814Z,92.00
2023-02-18T05:19:16.313Z,92.20
2023-02-18T05:21:45.736Z,92.10
2023-02-18T05:24:13.776Z,92.00
2023-02-18T05:26:41.805Z,92.20
2023-02-18T05:29:09.830Z,92.10
2023-02-18T05:31:38.578Z,92.20
2023-02-18T05:34:06.738Z,92.40
2023-02-18T05:36:34.780Z,92.30
2023-02-18T05:39:04.166Z,92.30
2023-02-18T05:41:32.194Z,92.30
2023-02-18T05:44:17.386Z,92.40
2023-02-18T05:46:45.465Z,92.30
2023-02-18T05:49:13.550Z,92.20
2023-02-18T05:51:41.576Z,92.30
2023-02-18T05:54:10.982Z,92.40
2023-02-18T05:56:42.835Z,92.20
2023-02-18T05:59:10.900Z,92.40
2023-02-18T06:01:38.931Z,92.60
2023-02-18T06:04:06.974Z,92.40
2023-02-18T06:06:35.104Z,92.30
2023-02-18T06:09:03.186Z,92.20
2023-02-18T06:11:32.709Z,92.20
2023-02-18T06:14:00.863Z,92.30
2023-02-18T06:16:29.028Z,92.60
2023-02-18T06:18:57.187Z,92.70
2023-02-18T06:21:25.230Z,92.70
2023-02-18T06:23:53.262Z,92.80
2023-02-18T06:26:21.325Z,92.70
2023-02-18T06:28:50.685Z,92.60
2023-02-18T06:31:18.858Z,92.70
2023-02-18T06:33:46.921Z,92.80
2023-02-18T06:36:15.166Z,92.80
2023-02-18T06:38:44.094Z,92.60
2023-02-18T06:41:12.249Z,92.70
2023-02-18T06:43:40.298Z,93.00
2023-02-18T06:46:10.119Z,92.90
2023-02-18T06:48:39.021Z,92.90
2023-02-18T06:51:12.955Z,92.80
2023-02-18T06:53:40.961Z,92.90
2023-02-18T06:56:09.354Z,93.00
2023-02-18T06:58:37.661Z,93.00
2023-02-18T07:01:06.008Z,92.90
2023-02-18T07:03:35.463Z,92.90
2023-02-18T07:06:03.571Z,92.90
2023-02-18T07:08:33.142Z,93.10
2023-02-18T07:11:01.201Z,93.00
2023-02-18T07:13:29.223Z,93.00
2023-02-18T07:15:57.331Z,93.10
2023-02-18T07:18:25.411Z,93.10
2023-02-18T07:20:54.819Z,93.10
2023-02-18T07:23:22.849Z,92.90
2023-02-18T07:25:50.875Z,93.10
2023-02-18T07:28:18.895Z,93.10
2023-02-18T07:30:46.960Z,93.00
2023-02-18T07:33:15.177Z,93.00
2023-02-18T07:35:43.266Z,93.00
2023-02-18T07:38:12.716Z,93.00
2023-02-18T07:40:40.729Z,93.00
2023-02-18T07:43:08.752Z,93.10
2023-02-18T07:45:38.916Z,93.10
2023-02-18T07:48:12.923Z,93.10
2023-02-18T07:50:42.398Z,93.10
2023-02-18T07:53:12.531Z,93.10
2023-02-18T07:55:52.449Z,93.00
2023-02-18T07:58:21.111Z,93.10
2023-02-18T08:00:49.509Z,93.20
2023-02-18T08:03:17.610Z,93.20
2023-02-18T08:05:45.738Z,93.10
2023-02-18T08:08:16.045Z,93.10
2023-02-18T08:10:44.423Z,93.10
2023-02-18T08:13:12.453Z,93.10
2023-02-18T08:15:40.753Z,93.10
2023-02-18T08:18:09.172Z,93.10
2023-02-18T08:20:37.868Z,93.00
2023-02-18T08:23:07.226Z,93.00
2023-02-18T08:25:36.649Z,93.00
2023-02-18T08:28:04.976Z,93.00
2023-02-18T08:30:33.099Z,93.00
2023-02-18T08:33:01.193Z,93.00
2023-02-18T08:35:29.222Z,93.00
2023-02-18T08:37:58.461Z,92.90
2023-02-18T08:40:26.664Z,93.00
2023-02-18T08:42:56.054Z,92.90
2023-02-18T08:45:24.132Z,92.90
2023-02-18T08:48:18.330Z,92.90
2023-02-18T08:50:40.257Z,92.90
2023-02-18T08:53:08.303Z,92.90
2023-02-18T08:55:38.401Z,92.90
2023-02-18T08:58:07.861Z,92.90
2023-02-18T09:00:36.140Z,92.80
2023-02-18T09:03:04.221Z,92.80
2023-02-18T09:05:36.974Z,92.80
2023-02-18T09:08:06.300Z,92.70
2023-02-18T09:10:34.348Z,92.70
2023-02-18T09:13:02.367Z,92.70
2023-02-18T09:15:32.358Z,92.70
2023-02-18T09:18:00.431Z,92.70
2023-02-18T09:20:28.724Z,92.70
2023-02-18T09:22:57.758Z,92.70
2023-02-18T09:25:26.572Z,92.60
2023-02-18T09:27:54.609Z,92.60
2023-02-18T09:30:22.785Z,92.40
2023-02-18T09:32:52.267Z,92.40
2023-02-18T09:35:20.512Z,92.40
2023-02-18T09:37:48.542Z,92.30
2023-02-18T09:40:24.181Z,92.30
2023-02-18T09:42:52.212Z,92.30
2023-02-18T09:45:21.816Z,92.20
2023-02-18T09:47:51.296Z,92.10
2023-02-18T09:50:20.558Z,92.10
2023-02-18T09:52:48.591Z,92.00
2023-02-18T09:55:21.641Z,92.00
2023-02-18T09:57:51.534Z,92.00
2023-02-18T10:00:21.844Z,91.90
2023-02-18T10:02:56.355Z,91.90
2023-02-18T10:05:25.220Z,91.80
2023-02-18T10:07:54.606Z,91.80
2023-02-18T10:10:23.606Z,91.80
2023-02-18T10:12:51.881Z,91.70
2023-02-18T10:15:25.138Z,91.70
2023-02-18T10:17:54.563Z,91.70
2023-02-18T10:20:24.599Z,91.60
2023-02-18T10:22:52.720Z,91.60
2023-02-18T10:25:22.256Z,91.60
2023-02-18T10:27:50.318Z,91.60
2023-02-18T10:30:23.805Z,91.50
2023-02-18T10:32:56.141Z,91.50
2023-02-18T10:35:25.871Z,91.50
2023-02-18T10:38:02.310Z,91.40
2023-02-18T10:40:33.121Z,91.40
2023-02-18T10:43:06.917Z,91.40
2023-02-18T10:45:39.416Z,91.40
2023-02-18T10:48:18.570Z,91.40
2023-02-18T10:50:47.025Z,91.40
2023-02-18T10:53:17.106Z,91.30
2023-02-18T10:55:46.404Z,91.30
2023-02-18T10:58:36.531Z,91.30
2023-02-18T11:01:08.569Z,91.30
2023-02-18T11:03:42.847Z,91.30
2023-02-18T11:06:17.784Z,91.30
2023-02-18T11:08:46.127Z,91.30
2023-02-18T11:11:16.922Z,91.30
2023-02-18T11:13:44.991Z,91.30
2023-02-18T11:16:13.087Z,91.30
2023-02-18T11:18:43.345Z,91.20
2023-02-18T11:21:22.429Z,91.30
2023-02-18T11:23:51.629Z,91.20
2023-02-18T11:26:21.095Z,91.20
2023-02-18T11:28:50.175Z,91.30
2023-02-18T11:31:22.599Z,91.30
2023-02-18T11:33:53.492Z,91.30
2023-02-18T11:36:26.348Z,91.30
2023-02-18T11:38:55.769Z,91.30
2023-02-18T11:41:30.684Z,91.30
2023-02-18T11:43:58.750Z,91.30
2023-02-18T11:46:27.959Z,91.30
2023-02-18T11:48:57.561Z,91.30
2023-02-18T11:51:26.802Z,91.40
2023-02-18T11:53:59.628Z,91.40
2023-02-18T11:56:28.745Z,91.40
2023-02-18T11:58:56.783Z,91.40
2023-02-18T12:01:39.617Z,91.40
2023-02-18T12:04:13.215Z,91.40
2023-02-18T12:06:46.200Z,91.40
2023-02-18T12:09:20.423Z,91.40
2023-02-18T12:11:50.639Z,91.40
2023-02-18T12:14:19.665Z,91.40
2023-02-18T12:17:02.477Z,91.50
2023-02-18T12:19:43.719Z,91.50
2023-02-18T12:22:13.794Z,91.50
2023-02-18T12:24:49.886Z,91.50
2023-02-18T12:27:20.128Z,91.50
2023-02-18T12:30:05.642Z,91.50
2023-02-18T12:32:38.486Z,91.50
2023-02-18T12:35:33.583Z,91.60
2023-02-18T12:38:25.415Z,91.50
2023-02-18T12:41:00.844Z,91.50
2023-02-18T12:43:34.336Z,91.60
2023-02-18T12:46:19.105Z,91.60
2023-02-18T12:48:54.209Z,91.60
2023-02-18T12:51:39.294Z,91.70
2023-02-18T12:54:28.549Z,91.60
2023-02-18T12:57:06.028Z,91.60
2023-02-18T13:00:02.992Z,91.60
2023-02-18T13:02:46.033Z,91.70
2023-02-18T13:05:16.343Z,91.70
2023-02-18T13:07:51.523Z,91.70
2023-02-18T13:10:46.739Z,91.70
2023-02-18T13:13:15.876Z,91.70
2023-02-18T13:15:44.901Z,91.80
2023-02-18T13:18:14.745Z,91.80
2023-02-18T13:20:44.345Z,91.80
2023-02-18T13:23:18.703Z,91.80
2023-02-18T13:25:46.736Z,91.90
2023-02-18T13:28:22.711Z,91.80
2023-02-18T13:30:53.098Z,91.90
2023-02-18T13:33:23.648Z,91.90
2023-02-18T13:35:56.051Z,91.90
2023-02-18T13:38:49.877Z,91.90
2023-02-18T13:41:18.013Z,91.90
2023-02-18T13:43:47.991Z,92.00
2023-02-18T13:46:18.295Z,91.90
2023-02-18T13:48:49.817Z,91.90
2023-02-18T13:51:27.946Z,92.00
2023-02-18T13:54:01.284Z,92.00
2023-02-18T13:56:29.803Z,92.00
2023-02-18T13:59:01.671Z,92.00
2023-02-18T14:01:39.451Z,92.00
2023-02-18T14:04:38.085Z,92.10
2023-02-18T14:07:26.748Z,92.00
2023-02-18T14:09:56.560Z,92.10
2023-02-18T14:12:36.971Z,92.10
2023-02-18T14:15:32.777Z,92.10
2023-02-18T14:18:10.464Z,92.20
2023-02-18T14:20:48.102Z,92.20
2023-02-18T14:23:40.583Z,92.20
2023-02-18T14:26:10.680Z,92.20
2023-02-18T14:28:44.882Z,92.10
2023-02-18T14:31:30.061Z,92.20
2023-02-18T14:34:28.218Z,92.20
2023-02-18T14:37:01.096Z,92.20
2023-02-18T14:39:38.994Z,92.30
2023-02-18T14:42:12.033Z,92.30
2023-02-18T14:44:49.548Z,92.30
2023-02-18T14:47:27.064Z,92.30
2023-02-18T14:49:55.234Z,92.30
2023-02-18T14:52:28.240Z,92.30
2023-02-18T14:54:56.271Z,92.40
2023-02-18T14:57:29.222Z,92.30
2023-02-18T14:59:59.600Z,92.30
2023-02-18T15:02:30.831Z,92.30
2023-02-18T15:05:12.775Z,92.30
2023-02-18T15:07:40.823Z,92.30
2023-02-18T15:10:14.582Z,92.40
2023-02-18T15:12:43.983Z,92.30
2023-02-18T15:15:12.008Z,92.40
2023-02-18T15:17:40.029Z,92.40
2023-02-18T15:20:09.040Z,92.40
2023-02-18T15:22:37.140Z,92.40
2023-02-18T15:25:05.336Z,92.60
2023-02-18T15:27:34.331Z,92.60
2023-02-18T15:30:14.949Z,92.70
2023-02-18T15:32:46.627Z,92.70
2023-02-18T15:35:16.704Z,92.70
2023-02-18T15:37:45.979Z,92.70
2023-02-18T15:40:15.302Z,92.70
2023-02-18T15:42:43.323Z,92.80
2023-02-18T15:45:18.446Z,92.90
2023-02-18T15:47:48.053Z,92.80
2023-02-18T15:50:18.637Z,92.90
2023-02-18T15:52:46.682Z,92.80
2023-02-18T15:55:31.323Z,92.80
2023-02-18T15:58:01.299Z,92.90
2023-02-18T16:00:34.588Z,92.90
2023-02-18T16:03:05.065Z,92.90
2023-02-18T16:05:33.197Z,92.90
2023-02-18T16:08:02.275Z,92.90
2023-02-18T16:10:47.714Z,92.90
2023-02-18T16:13:16.925Z,92.90
2023-02-18T16:15:47.240Z,92.90
2023-02-18T16:18:30.386Z,92.90
2023-02-18T16:21:01.452Z,92.90
2023-02-18T16:23:36.311Z,92.90
2023-02-18T16:26:22.076Z,92.90
2023-02-18T16:28:52.527Z,92.90
2023-02-18T16:31:22.052Z,92.90
2023-02-18T16:33:50.373Z,93.00
2023-02-18T16:36:18.525Z,92.90
2023-02-18T16:38:46.561Z,92.90
2023-02-18T16:41:15.077Z,93.00
2023-02-18T16:43:43.129Z,93.00
2023-02-18T16:46:13.705Z,93.00
2023-02-18T16:48:44.324Z,93.00
2023-02-18T16:51:14.912Z,93.00
2023-02-18T16:53:42.989Z,93.00
2023-02-18T16:56:17.817Z,93.00
2023-02-18T16:58:45.822Z,93.00
2023-02-18T17:01:23.290Z,93.00
2023-02-18T17:03:52.840Z,93.00
2023-02-18T17:06:21.095Z,93.00
2023-02-18T17:08:49.375Z,92.90
2023-02-18T17:11:21.369Z,93.00
2023-02-18T17:13:49.687Z,93.00
2023-02-18T17:16:17.909Z,92.90
2023-02-18T17:18:46.194Z,92.90
2023-02-18T17:21:16.378Z,92.90
2023-02-18T17:23:44.850Z,92.90
2023-02-18T17:26:17.954Z,92.90
2023-02-18T17:28:46.023Z,92.90
2023-02-18T17:31:16.790Z,92.90
2023-02-18T17:33:45.043Z,92.90
2023-02-18T17:36:13.195Z,92.90
2023-02-18T17:38:42.639Z,92.90
2023-02-18T17:41:11.465Z,92.90
2023-02-18T17:43:43.496Z,92.90
2023-02-18T17:46:12.445Z,92.80
2023-02-18T17:48:40.658Z,92.80
2023-02-18T17:51:08.887Z,92.80
2023-02-18T17:53:37.058Z,92.80
2023-02-18T17:56:06.555Z,92.80
2023-02-18T17:58:34.697Z,92.80
2023-02-18T18:01:02.748Z,92.80
2023-02-18T18:03:30.834Z,92.70
2023-02-18T18:05:58.863Z,92.70
2023-02-18T18:08:26.872Z,92.70
2023-02-18T18:10:56.159Z,92.70
2023-02-18T18:13:26.552Z,92.70
2023-02-18T18:15:56.248Z,92.60
2023-02-18T18:18:25.742Z,92.60
2023-02-18T18:20:57.301Z,92.60
2023-02-18T18:23:25.363Z,92.60
2023-02-18T18:25:54.285Z,92.70
2023-02-18T18:28:22.323Z,92.70
2023-02-18T18:30:53.047Z,92.70
2023-02-18T18:33:22.102Z,92.70
2023-02-18T18:35:51.853Z,92.70
2023-02-18T18:38:20.410Z,92.70
2023-02-18T18:40:49.679Z,92.80
2023-02-18T18:43:19.401Z,92.70
2023-02-18T18:45:47.512Z,92.70
2023-02-18T18:48:17.054Z,92.60
2023-02-18T18:50:45.251Z,92.70
2023-02-18T18:53:17.504Z,92.70
2023-02-18T18:55:45.587Z,92.70
2023-02-18T18:58:13.606Z,92.70
2023-02-18T19:00:42.804Z,92.70
2023-02-18T19:03:12.445Z,92.60
2023-02-18T19:05:45.177Z,92.60
2023-02-18T19:08:14.218Z,92.60
2023-02-18T19:10:43.208Z,92.70
2023-02-18T19:13:13.444Z,92.70
2023-02-18T19:15:41.586Z,92.60
2023-02-18T19:18:10.913Z,92.70
2023-02-18T19:20:39.847Z,92.60
2023-02-18T19:23:10.262Z,92.70
2023-02-18T19:25:38.798Z,92.70
2023-02-18T19:28:06.863Z,92.60
2023-02-18T19:30:35.843Z,92.60
2023-02-18T19:33:04.986Z,92.60
2023-02-18T19:35:33.166Z,92.60
2023-02-18T19:38:01.414Z,92.70
2023-02-18T19:40:31.579Z,92.70
2023-02-18T19:42:59.620Z,92.70
2023-02-18T19:45:27.694Z,92.60
2023-02-18T19:47:55.820Z,92.60
2023-02-18T19:50:23.910Z,92.70
2023-02-18T19:52:52.877Z,92.70
2023-02-18T19:55:32.939Z,92.70
2023-02-18T19:58:00.953Z,92.70
2023-02-18T20:00:29.026Z,92.80
2023-02-18T20:02:57.086Z,92.80
2023-02-18T20:05:25.155Z,92.80
2023-02-18T20:07:53.177Z,92.80
2023-02-18T20:10:21.351Z,92.80
2023-02-18T20:12:54.139Z,92.90
2023-02-18T20:15:22.282Z,92.90
2023-02-18T20:17:50.476Z,92.90
2023-02-18T20:20:18.627Z,92.90
2023-02-18T20:22:46.809Z,93.00
2023-02-18T20:25:14.854Z,92.90
2023-02-18T20:27:59.552Z,92.90
2023-02-18T20:30:30.340Z,92.90
2023-02-18T20:32:58.409Z,92.90
2023-02-18T20:35:26.754Z,92.90
2023-02-18T20:37:54.779Z,92.90
2023-02-18T20:40:22.850Z,92.90
2023-02-18T20:42:50.928Z,93.00
2023-02-18T20:45:19.155Z,92.90
2023-02-18T20:47:48.556Z,93.00
2023-02-18T20:50:16.997Z,93.00
2023-02-18T20:52:45.037Z,93.00
2023-02-18T20:55:13.132Z,93.00
2023-02-18T20:57:41.213Z,93.00
2023-02-18T21:00:10.352Z,93.00
2023-02-18T21:02:38.409Z,93.00
2023-02-18T21:05:08.246Z,93.00
2023-02-18T21:07:36.265Z,93.00
2023-02-18T21:10:05.088Z,93.00
2023-02-18T21:12:33.153Z,93.00
2023-02-18T21:15:01.172Z,93.00
2023-02-18T21:17:29.254Z,93.00
2023-02-18T21:19:57.281Z,93.00
2023-02-18T21:22:26.783Z,93.00
2023-02-18T21:24:54.833Z,93.00
2023-02-18T21:27:22.856Z,93.00
2023-02-18T21:29:51.022Z,93.10
2023-02-18T21:32:19.224Z,93.00
2023-02-18T21:34:47.390Z,93.00
2023-02-18T21:37:15.449Z,93.00
2023-02-18T21:39:44.827Z,93.00
2023-02-18T21:42:12.852Z,93.00
2023-02-18T21:44:42.662Z,93.00
2023-02-18T21:47:11.662Z,93.00
2023-02-18T21:49:39.665Z,93.00
2023-02-18T21:52:13.625Z,93.00
2023-02-18T21:54:44.538Z,93.00
2023-02-18T21:57:14.904Z,93.10
2023-02-18T21:59:43.071Z,93.00
2023-02-18T22:02:15.756Z,93.00
2023-02-18T22:04:49.864Z,93.00
2023-02-18T22:07:17.976Z,93.00
2023-02-18T22:09:50.695Z,93.00
2023-02-18T22:12:20.238Z,93.00
2023-02-18T22:14:48.409Z,93.00
2023-02-18T22:17:17.088Z,92.90
2023-02-18T22:19:46.188Z,93.00
2023-02-18T22:22:14.240Z,93.00
2023-02-18T22:24:42.263Z,93.10
2023-02-18T22:27:10.311Z,93.10
2023-02-18T22:29:39.949Z,93.10
2023-02-18T22:32:08.028Z,93.10
2023-02-18T22:34:36.092Z,93.00
2023-02-18T22:37:04.128Z,93.00
2023-02-18T22:39:32.208Z,93.00
2023-02-18T22:42:00.223Z,93.00
2023-02-18T22:44:28.331Z,93.00
2023-02-18T22:46:57.798Z,93.00
2023-02-18T22:49:26.140Z,93.00
2023-02-18T22:51:54.907Z,93.00
2023-02-18T22:54:22.995Z,93.00
2023-02-18T22:56:51.043Z,93.00
2023-02-18T22:59:19.373Z,93.00
2023-02-18T23:01:49.827Z,93.00
2023-02-18T23:04:20.233Z,93.10
2023-02-18T23:06:48.518Z,93.00
2023-02-18T23:09:18.284Z,93.00
2023-02-18T23:11:46.353Z,93.00
2023-02-18T23:14:19.951Z,93.00
2023-02-18T23:17:05.882Z,93.00
2023-02-18T23:19:35.832Z,93.10
2023-02-18T23:22:03.915Z,93.00
2023-02-18T23:24:33.361Z,93.10
2023-02-18T23:27:01.712Z,93.10
2023-02-18T23:29:29.758Z,93.10
2023-02-18T23:31:57.792Z,93.20
2023-02-18T23:34:25.875Z,93.10
2023-02-18T23:36:55.300Z,93.10
2023-02-18T23:39:23.703Z,93.20
2023-02-18T23:41:51.987Z,93.20
2023-02-18T23:44:22.146Z,93.20
2023-02-18T23:46:50.194Z,93.20
2023-02-18T23:49:19.343Z,93.20
2023-02-18T23:51:47.372Z,93.20
2023-02-18T23:54:16.774Z,93.30
2023-02-18T23:56:44.903Z,93.30
2023-02-18T23:59:13.053Z,93.30
